createdAt,value
2023-04-20T00:02:04.137Z,100.00
2023-04-20T00:04:30.856Z,100.00
2023-04-20T00:06:59.076Z,100.00
2023-04-20T00:09:26.793Z,100.00
2023-04-20T00:11:54.294Z,100.00
2023-04-20T00:14:20.879Z,100.00
2023-04-20T00:16:48.453Z,100.00
2023-04-20T00:19:15.024Z,100.00
2023-04-20T00:21:41.648Z,100.00
2023-04-20T00:24:08.368Z,100.00
2023-04-20T00:26:34.965Z,100.00
2023-04-20T00:29:01.733Z,100.00
2023-04-20T00:31:28.292Z,100.00
2023-04-20T00:33:54.712Z,100.00
2023-04-20T00:36:21.925Z,100.00
2023-04-20T00:38:48.435Z,100.00
2023-04-20T00:41:14.981Z,100.00
2023-04-20T00:43:54.292Z,100.00
2023-04-20T00:46:21.487Z,100.00
2023-04-20T00:48:48.252Z,100.00
2023-04-20T00:51:15.045Z,100.00
2023-04-20T00:53:41.761Z,100.00
2023-04-20T00:56:08.996Z,100.00
2023-04-20T00:58:35.504Z,100.00
2023-04-20T01:01:01.932Z,100.00
2023-04-20T01:03:28.525Z,100.00
2023-04-20T01:05:55.762Z,100.00
2023-04-20T01:08:26.407Z,100.00
2023-04-20T01:10:54.333Z,100.00
2023-04-20T01:13:21.103Z,100.00
2023-04-20T01:15:47.936Z,100.00
2023-04-20T01:18:19.431Z,100.00
2023-04-20T01:20:50.490Z,100.00
2023-04-20T01:23:18.648Z,100.00
2023-04-20T01:25:45.267Z,100.00
2023-04-20T01:28:14.378Z,100.00
2023-04-20T01:30:41.316Z,100.00
2023-04-20T01:33:09.025Z,100.00
2023-04-20T01:35:40.963Z,100.00
2023-04-20T01:38:10.411Z,100.00
2023-04-20T01:40:42.658Z,100.00
2023-04-20T01:43:11.054Z,100.00
2023-04-20T01:45:37.990Z,100.00
2023-04-20T01:48:04.981Z,100.00
2023-04-20T01:50:32.127Z,100.00
2023-04-20T01:52:58.687Z,100.00
2023-04-20T01:55:25.155Z,100.00
2023-04-20T01:57:51.754Z,100.00
2023-04-20T02:00:18.594Z,100.00
2023-04-20T02:02:45.568Z,100.00
2023-04-20T02:05:12.132Z,100.00
2023-04-20T02:07:38.884Z,100.00
2023-04-20T02:10:06.433Z,100.00
2023-04-20T02:12:32.917Z,100.00
2023-04-20T02:14:59.531Z,100.00
2023-04-20T02:17:26.360Z,100.00
2023-04-20T02:19:52.855Z,100.00
2023-04-20T02:22:19.554Z,100.00
2023-04-20T02:24:46.224Z,100.00
2023-04-20T02:27:12.684Z,100.00
2023-04-20T02:29:39.207Z,100.00
2023-04-20T02:32:06.613Z,100.00
2023-04-20T02:34:33.435Z,100.00
2023-04-20T02:37:00.192Z,100.00
2023-04-20T02:39:26.914Z,100.00
2023-04-20T02:41:53.562Z,100.00
2023-04-20T02:44:20.012Z,100.00
2023-04-20T02:46:46.638Z,100.00
2023-04-20T02:49:13.299Z,100.00
2023-04-20T02:51:39.872Z,100.00
2023-04-20T02:54:06.427Z,100.00
2023-04-20T02:56:32.919Z,100.00
2023-04-20T02:58:59.370Z,100.00
2023-04-20T03:01:25.993Z,100.00
2023-04-20T03:03:52.752Z,100.00
2023-04-20T03:06:19.425Z,100.00
2023-04-20T03:08:46.128Z,100.00
2023-04-20T03:11:12.540Z,100.00
2023-04-20T03:13:38.908Z,100.00
2023-04-20T03:16:06.220Z,100.00
2023-04-20T03:18:32.760Z,100.00
2023-04-20T03:20:59.145Z,100.00
2023-04-20T03:23:25.820Z,100.00
2023-04-20T03:25:52.487Z,100.00
2023-04-20T03:28:18.907Z,100.00
2023-04-20T03:30:45.495Z,100.00
2023-04-20T03:33:12.018Z,100.00
2023-04-20T03:35:39.492Z,100.00
2023-04-20T03:38:06.552Z,100.00
2023-04-20T03:40:33.007Z,100.00
2023-04-20T03:42:59.578Z,100.00
2023-04-20T03:45:25.973Z,100.00
2023-04-20T03:47:52.464Z,100.00
2023-04-20T03:50:19.239Z,100.00
2023-04-20T03:52:46.280Z,100.00
2023-04-20T03:55:12.675Z,100.00
2023-04-20T03:57:39.126Z,100.00
2023-04-20T04:00:07.303Z,100.00
2023-04-20T04:02:36.795Z,100.00
2023-04-20T04:05:05.291Z,100.00
2023-04-20T04:07:32.125Z,100.00
2023-04-20T04:09:58.558Z,100.00
2023-04-20T04:12:25.082Z,100.00
2023-04-20T04:14:51.570Z,100.00
2023-04-20T04:17:18.147Z,100.00
2023-04-20T04:19:44.630Z,100.00
2023-04-20T04:22:11.128Z,100.00
2023-04-20T04:24:38.980Z,100.00
2023-04-20T04:27:05.595Z,100.00
2023-04-20T04:29:35.794Z,100.00
2023-04-20T04:32:04.068Z,100.00
2023-04-20T04:34:33.727Z,100.00
2023-04-20T04:37:00.565Z,100.00
2023-04-20T04:39:27.867Z,100.00
2023-04-20T04:41:54.301Z,100.00
2023-04-20T04:44:21.258Z,100.00
2023-04-20T04:46:48.368Z,100.00
2023-04-20T04:49:15.209Z,100.00
2023-04-20T04:51:41.832Z,100.00
2023-04-20T04:54:08.438Z,100.00
2023-04-20T04:56:34.894Z,100.00
2023-04-20T04:59:01.759Z,100.00
2023-04-20T05:01:28.378Z,100.00
2023-04-20T05:03:55.114Z,100.00
2023-04-20T05:06:21.656Z,100.00
2023-04-20T05:08:48.344Z,100.00
2023-04-20T05:11:15.001Z,100.00
2023-04-20T05:13:41.610Z,100.00
2023-04-20T05:16:08.682Z,100.00
2023-04-20T05:18:35.313Z,100.00
2023-04-20T05:21:01.872Z,100.00
2023-04-20T05:23:28.421Z,100.00
2023-04-20T05:25:54.901Z,100.00
2023-04-20T05:28:21.344Z,100.00
2023-04-20T05:30:47.780Z,100.00
2023-04-20T05:33:14.170Z,100.00
2023-04-20T05:35:41.170Z,100.00
2023-04-20T05:38:07.652Z,100.00
2023-04-20T05:40:35.407Z,100.00
2023-04-20T05:43:02.264Z,100.00
2023-04-20T05:45:28.813Z,100.00
2023-04-20T05:47:58.461Z,100.00
2023-04-20T05:50:25.952Z,100.00
2023-04-20T05:52:53.264Z,100.00
2023-04-20T05:55:22.222Z,100.00
2023-04-20T05:57:49.381Z,100.00
2023-04-20T06:00:16.918Z,100.00
2023-04-20T06:02:43.993Z,100.00
2023-04-20T06:05:11.282Z,100.00
2023-04-20T06:07:38.304Z,100.00
2023-04-20T06:10:05.747Z,100.00
2023-04-20T06:12:32.240Z,100.00
2023-04-20T06:14:59.519Z,100.00
2023-04-20T06:17:26.834Z,100.00
2023-04-20T06:19:53.372Z,100.00
2023-04-20T06:22:19.951Z,100.00
2023-04-20T06:24:46.728Z,100.00
2023-04-20T06:27:13.390Z,100.00
2023-04-20T06:29:39.821Z,100.00
2023-04-20T06:32:06.375Z,100.00
2023-04-20T06:34:32.968Z,100.00
2023-04-20T06:36:59.362Z,100.00
2023-04-20T06:39:26.210Z,100.00
2023-04-20T06:41:52.892Z,100.00
2023-04-20T06:44:19.287Z,100.00
2023-04-20T06:46:45.750Z,97.42
2023-04-20T06:49:12.182Z,95.69
2023-04-20T06:51:39.155Z,95.20
2023-04-20T06:54:05.722Z,96.22
2023-04-20T06:56:34.313Z,97.54
2023-04-20T06:59:01.949Z,97.27
2023-04-20T07:01:28.422Z,96.16
2023-04-20T07:03:55.231Z,97.73
2023-04-20T07:06:21.818Z,98.33
2023-04-20T07:08:48.277Z,97.81
2023-04-20T07:11:14.655Z,97.10
2023-04-20T07:13:41.225Z,97.70
2023-04-20T07:16:08.129Z,98.44
2023-04-20T07:18:35.361Z,98.10
2023-04-20T07:21:02.384Z,97.75
2023-04-20T07:23:28.898Z,97.85
2023-04-20T07:25:55.697Z,96.21
2023-04-20T07:28:22.149Z,96.54
2023-04-20T07:30:48.584Z,95.71
2023-04-20T07:33:15.142Z,94.17
2023-04-20T07:35:41.655Z,95.66
2023-04-20T07:38:08.097Z,97.14
2023-04-20T07:40:34.613Z,96.55
2023-04-20T07:43:01.130Z,93.48
2023-04-20T07:45:27.622Z,93.33
2023-04-20T07:47:55.275Z,93.49
2023-04-20T07:50:21.998Z,92.68
2023-04-20T07:52:48.530Z,91.46
2023-04-20T07:55:15.837Z,90.75
2023-04-20T07:57:42.547Z,90.03
2023-04-20T08:00:10.128Z,90.72
2023-04-20T08:02:36.935Z,90.80
2023-04-20T08:05:04.034Z,90.00
2023-04-20T08:07:30.874Z,90.65
2023-04-20T08:09:57.253Z,89.54
2023-04-20T08:12:23.768Z,87.38
2023-04-20T08:14:50.309Z,87.15
2023-04-20T08:17:16.690Z,87.42
2023-04-20T08:19:44.956Z,86.54
2023-04-20T08:22:12.714Z,86.58
2023-04-20T08:24:39.182Z,86.74
2023-04-20T08:27:06.647Z,86.91
2023-04-20T08:29:33.036Z,86.89
2023-04-20T08:31:59.646Z,84.61
2023-04-20T08:34:26.188Z,83.63
2023-04-20T08:36:52.750Z,82.79
2023-04-20T08:39:21.795Z,83.88
2023-04-20T08:41:53.572Z,82.51
2023-04-20T08:44:20.550Z,79.11
2023-04-20T08:46:48.389Z,80.43
2023-04-20T08:49:19.185Z,80.66
2023-04-20T08:51:47.361Z,78.36
2023-04-20T08:54:14.769Z,76.90
2023-04-20T08:56:46.159Z,78.82
2023-04-20T08:59:14.415Z,79.34
2023-04-20T09:01:41.993Z,81.18
2023-04-20T09:04:22.974Z,82.61
2023-04-20T09:06:51.672Z,85.94
2023-04-20T09:09:19.727Z,84.28
2023-04-20T09:11:47.647Z,85.12
2023-04-20T09:14:18.890Z,83.10
2023-04-20T09:16:53.494Z,84.48
2023-04-20T09:19:24.677Z,82.78
2023-04-20T09:21:53.166Z,85.77
2023-04-20T09:24:21.573Z,86.85
2023-04-20T09:26:48.184Z,83.11
2023-04-20T09:29:23.378Z,85.89
2023-04-20T09:31:50.762Z,88.71
2023-04-20T09:34:18.281Z,86.78
2023-04-20T09:36:54.721Z,87.74
2023-04-20T09:39:22.983Z,89.33
2023-04-20T09:41:51.027Z,89.50
2023-04-20T09:44:18.898Z,89.61
2023-04-20T09:46:46.682Z,88.10
2023-04-20T09:49:14.677Z,87.50
2023-04-20T09:51:45.186Z,86.84
2023-04-20T09:54:12.651Z,86.26
2023-04-20T09:56:39.988Z,88.75
2023-04-20T09:59:07.890Z,89.97
2023-04-20T10:01:36.466Z,89.85
2023-04-20T10:04:07.727Z,88.97
2023-04-20T10:06:35.843Z,89.08
2023-04-20T10:09:05.176Z,89.91
2023-04-20T10:11:49.047Z,91.21
2023-04-20T10:14:20.887Z,90.84
2023-04-20T10:16:59.508Z,90.29
2023-04-20T10:19:36.722Z,89.78
2023-04-20T10:22:03.201Z,90.44
2023-04-20T10:24:30.456Z,90.30
2023-04-20T10:26:57.116Z,90.07
2023-04-20T10:29:25.425Z,90.80
2023-04-20T10:31:53.359Z,91.73
2023-04-20T10:34:36.120Z,90.38
2023-04-20T10:37:10.184Z,91.67
2023-04-20T10:39:40.152Z,91.15
2023-04-20T10:42:06.599Z,89.11
2023-04-20T10:44:34.526Z,90.68
2023-04-20T10:47:01.088Z,91.69
2023-04-20T10:49:32.249Z,92.25
2023-04-20T10:51:58.850Z,90.37
2023-04-20T10:54:26.105Z,92.53
2023-04-20T10:56:53.304Z,92.06
2023-04-20T10:59:22.044Z,90.19
2023-04-20T11:01:49.824Z,89.49
2023-04-20T11:04:18.936Z,89.83
2023-04-20T11:06:48.241Z,88.03
2023-04-20T11:09:22.921Z,86.09
2023-04-20T11:12:03.857Z,87.64
2023-04-20T11:14:42.903Z,84.73
2023-04-20T11:17:09.467Z,86.32
2023-04-20T11:19:36.962Z,86.87
2023-04-20T11:22:04.547Z,86.70
2023-04-20T11:24:33.695Z,85.75
2023-04-20T11:27:01.958Z,87.34
2023-04-20T11:29:39.127Z,87.94
2023-04-20T11:32:10.681Z,87.19
2023-04-20T11:34:38.499Z,85.47
2023-04-20T11:37:13.755Z,85.80
2023-04-20T11:39:40.236Z,86.89
2023-04-20T11:42:07.185Z,85.46
2023-04-20T11:44:36.426Z,86.59
2023-04-20T11:47:03.787Z,84.63
2023-04-20T11:49:30.891Z,83.95
2023-04-20T11:51:57.576Z,84.27
2023-04-20T11:54:25.148Z,84.89
2023-04-20T11:56:51.633Z,84.32
2023-04-20T11:59:20.097Z,83.47
2023-04-20T12:01:47.803Z,83.12
2023-04-20T12:04:15.354Z,83.18
2023-04-20T12:06:42.429Z,83.73
2023-04-20T12:09:08.905Z,83.36
2023-04-20T12:11:35.314Z,83.23
2023-04-20T12:14:01.752Z,83.30
2023-04-20T12:16:29.302Z,82.57
2023-04-20T12:18:56.454Z,81.31
2023-04-20T12:21:22.897Z,82.00
2023-04-20T12:23:51.127Z,81.94
2023-04-20T12:26:17.886Z,79.90
2023-04-20T12:28:45.417Z,78.64
2023-04-20T12:31:12.182Z,79.33
2023-04-20T12:33:38.893Z,78.61
2023-04-20T12:36:05.625Z,77.21
2023-04-20T12:38:32.007Z,77.62
2023-04-20T12:40:58.536Z,76.73
2023-04-20T12:43:25.027Z,77.19
2023-04-20T12:45:51.503Z,75.38
2023-04-20T12:48:18.054Z,78.36
2023-04-20T12:50:44.613Z,77.29
2023-04-20T12:53:11.063Z,77.58
2023-04-20T12:55:37.515Z,79.72
2023-04-20T12:58:04.088Z,78.95
2023-04-20T13:00:30.725Z,80.41
2023-04-20T13:02:57.371Z,78.45
2023-04-20T13:05:23.875Z,79.43
2023-04-20T13:07:50.693Z,77.89
2023-04-20T13:10:17.249Z,77.71
2023-04-20T13:12:43.765Z,78.03
2023-04-20T13:15:10.837Z,80.56
2023-04-20T13:17:37.329Z,80.50
2023-04-20T13:20:04.919Z,79.65
2023-04-20T13:22:31.840Z,79.45
2023-04-20T13:24:58.390Z,76.46
2023-04-20T13:27:24.814Z,77.54
2023-04-20T13:29:51.293Z,78.56
2023-04-20T13:32:17.756Z,77.00
2023-04-20T13:34:46.074Z,79.11
2023-04-20T13:37:13.136Z,79.93
2023-04-20T13:39:39.548Z,80.01
2023-04-20T13:42:06.065Z,79.77
2023-04-20T13:44:34.441Z,78.16
2023-04-20T13:47:01.041Z,78.89
2023-04-20T13:49:27.476Z,78.97
2023-04-20T13:51:53.962Z,78.39
2023-04-20T13:54:20.917Z,77.74
2023-04-20T13:56:47.433Z,76.91
2023-04-20T13:59:15.525Z,77.34
2023-04-20T14:01:41.967Z,78.58
2023-04-20T14:04:09.885Z,78.60
2023-04-20T14:06:36.512Z,77.95
2023-04-20T14:09:03.004Z,79.09
2023-04-20T14:11:29.493Z,77.93
2023-04-20T14:13:56.037Z,77.56
2023-04-20T14:16:22.816Z,77.37
2023-04-20T14:18:49.438Z,74.51
2023-04-20T14:21:15.982Z,74.53
2023-04-20T14:23:42.477Z,72.82
2023-04-20T14:26:08.915Z,71.15
2023-04-20T14:28:35.394Z,69.70
2023-04-20T14:31:02.559Z,72.82
2023-04-20T14:33:29.082Z,70.07
2023-04-20T14:35:55.488Z,69.69
2023-04-20T14:38:21.869Z,71.48
2023-04-20T14:40:48.788Z,67.27
2023-04-20T14:43:15.427Z,69.07
2023-04-20T14:45:41.943Z,67.64
2023-04-20T14:48:08.538Z,70.66
2023-04-20T14:50:35.116Z,69.39
2023-04-20T14:53:01.918Z,67.44
2023-04-20T14:55:28.778Z,67.64
2023-04-20T14:57:57.188Z,68.52
2023-04-20T15:00:25.212Z,68.03
2023-04-20T15:02:53.553Z,68.31
2023-04-20T15:05:20.597Z,69.17
2023-04-20T15:07:50.598Z,70.27
2023-04-20T15:10:20.469Z,69.41
2023-04-20T15:12:47.861Z,69.86
2023-04-20T15:15:14.964Z,69.01
2023-04-20T15:17:42.059Z,68.47
2023-04-20T15:20:09.300Z,68.45
2023-04-20T15:22:36.889Z,67.37
2023-04-20T15:25:03.936Z,68.17
2023-04-20T15:27:30.532Z,68.13
2023-04-20T15:29:58.405Z,68.64
2023-04-20T15:32:25.767Z,69.32
2023-04-20T15:34:53.829Z,65.96
2023-04-20T15:37:20.498Z,67.35
2023-04-20T15:39:47.149Z,65.47
2023-04-20T15:42:14.193Z,64.03
2023-04-20T15:44:41.456Z,64.07
2023-04-20T15:47:08.032Z,66.06
2023-04-20T15:49:37.325Z,66.31
2023-04-20T15:52:05.112Z,65.92
2023-04-20T15:54:31.547Z,64.94
2023-04-20T15:56:58.056Z,64.11
2023-04-20T15:59:24.665Z,64.53
2023-04-20T16:01:51.253Z,65.83
2023-04-20T16:04:18.086Z,63.44
2023-04-20T16:06:45.171Z,63.86
2023-04-20T16:09:11.549Z,64.09
2023-04-20T16:11:39.622Z,62.83
2023-04-20T16:14:06.456Z,64.91
2023-04-20T16:16:33.334Z,63.87
2023-04-20T16:18:59.780Z,63.36
2023-04-20T16:21:26.393Z,64.94
2023-04-20T16:23:59.844Z,64.41
2023-04-20T16:26:26.290Z,63.76
2023-04-20T16:28:53.692Z,66.39
2023-04-20T16:31:20.297Z,65.19
2023-04-20T16:33:46.913Z,66.29
2023-04-20T16:36:13.639Z,64.20
2023-04-20T16:38:40.081Z,65.98
2023-04-20T16:41:06.633Z,66.00
2023-04-20T16:43:33.107Z,65.84
2023-04-20T16:45:59.641Z,66.57
2023-04-20T16:48:26.231Z,65.69
2023-04-20T16:50:53.199Z,64.82
2023-04-20T16:53:20.040Z,65.87
2023-04-20T16:55:46.534Z,63.84
2023-04-20T16:58:12.952Z,64.59
2023-04-20T17:00:39.463Z,64.84
2023-04-20T17:03:10.856Z,64.74
2023-04-20T17:05:41.104Z,65.40
2023-04-20T17:08:08.667Z,64.79
2023-04-20T17:10:37.251Z,64.81
2023-04-20T17:13:04.227Z,65.41
2023-04-20T17:15:31.262Z,64.99
2023-04-20T17:17:58.189Z,65.83
2023-04-20T17:20:25.022Z,66.47
2023-04-20T17:22:51.653Z,66.45
2023-04-20T17:25:18.374Z,65.96
2023-04-20T17:27:45.004Z,65.94
2023-04-20T17:30:11.890Z,66.10
2023-04-20T17:32:38.512Z,67.69
2023-04-20T17:35:05.535Z,66.94
2023-04-20T17:37:32.061Z,66.58
2023-04-20T17:39:58.672Z,67.71
2023-04-20T17:42:25.303Z,68.72
2023-04-20T17:44:51.716Z,69.33
2023-04-20T17:47:18.208Z,69.03
2023-04-20T17:49:44.745Z,68.98
2023-04-20T17:52:14.913Z,70.10
2023-04-20T17:54:41.535Z,70.28
2023-04-20T17:57:09.012Z,71.88
2023-04-20T17:59:35.883Z,70.51
2023-04-20T18:02:02.912Z,69.86
2023-04-20T18:04:29.730Z,70.07
2023-04-20T18:06:56.562Z,69.02
2023-04-20T18:09:23.002Z,69.54
2023-04-20T18:11:49.392Z,70.11
2023-04-20T18:14:16.113Z,69.83
2023-04-20T18:16:42.659Z,69.67
2023-04-20T18:19:09.226Z,70.64
2023-04-20T18:21:35.723Z,69.94
2023-04-20T18:24:04.192Z,71.58
2023-04-20T18:26:30.675Z,71.48
2023-04-20T18:28:57.115Z,72.10
2023-04-20T18:31:23.669Z,72.62
2023-04-20T18:33:50.286Z,71.83
2023-04-20T18:36:16.886Z,72.11
2023-04-20T18:38:43.683Z,72.35
2023-04-20T18:41:10.881Z,72.44
2023-04-20T18:43:37.734Z,72.08
2023-04-20T18:46:04.639Z,73.53
2023-04-20T18:48:31.323Z,71.91
2023-04-20T18:50:57.748Z,72.77
2023-04-20T18:53:24.203Z,71.72
2023-04-20T18:55:52.867Z,72.62
2023-04-20T18:58:19.329Z,71.94
2023-04-20T19:00:45.881Z,72.58
2023-04-20T19:03:12.588Z,73.33
2023-04-20T19:05:39.213Z,73.23
2023-04-20T19:08:05.707Z,72.76
2023-04-20T19:10:32.191Z,73.19
2023-04-20T19:12:58.648Z,72.96
2023-04-20T19:15:28.032Z,71.93
2023-04-20T19:17:56.058Z,72.77
2023-04-20T19:20:26.176Z,73.22
2023-04-20T19:22:52.872Z,73.28
2023-04-20T19:25:20.367Z,72.27
2023-04-20T19:27:47.214Z,73.00
2023-04-20T19:30:14.045Z,74.02
2023-04-20T19:32:40.632Z,73.42
2023-04-20T19:35:07.529Z,73.53
2023-04-20T19:37:34.154Z,74.08
2023-04-20T19:40:00.770Z,73.93
2023-04-20T19:42:27.357Z,74.18
2023-04-20T19:44:53.919Z,72.83
2023-04-20T19:47:20.801Z,74.47
2023-04-20T19:49:47.401Z,73.16
2023-04-20T19:52:13.891Z,74.29
2023-04-20T19:54:40.394Z,74.04
2023-04-20T19:57:07.070Z,74.97
2023-04-20T19:59:33.780Z,75.00
2023-04-20T20:02:00.298Z,75.61
2023-04-20T20:04:27.123Z,75.53
2023-04-20T20:06:53.956Z,75.72
2023-04-20T20:09:23.737Z,76.80
2023-04-20T20:11:50.763Z,76.14
2023-04-20T20:14:17.564Z,76.54
2023-04-20T20:16:44.215Z,76.43
2023-04-20T20:19:11.071Z,77.58
2023-04-20T20:21:37.796Z,78.57
2023-04-20T20:24:05.089Z,78.27
2023-04-20T20:26:31.612Z,78.72
2023-04-20T20:28:58.065Z,80.37
2023-04-20T20:31:24.690Z,80.25
2023-04-20T20:33:52.073Z,81.13
2023-04-20T20:36:18.942Z,82.11
2023-04-20T20:38:45.473Z,82.47
2023-04-20T20:41:13.855Z,83.25
2023-04-20T20:43:43.170Z,84.11
2023-04-20T20:46:09.829Z,83.95
2023-04-20T20:48:37.189Z,84.13
2023-04-20T20:51:03.733Z,84.19
2023-04-20T20:53:30.182Z,85.22
2023-04-20T20:55:56.649Z,86.13
2023-04-20T20:58:23.110Z,86.28
2023-04-20T21:00:49.746Z,87.43
2023-04-20T21:03:16.426Z,87.45
2023-04-20T21:05:43.062Z,89.40
2023-04-20T21:08:10.069Z,89.60
2023-04-20T21:10:37.094Z,90.32
2023-04-20T21:13:04.203Z,90.95
2023-04-20T21:15:30.678Z,91.02
2023-04-20T21:17:57.310Z,91.00
2023-04-20T21:20:23.746Z,91.11
2023-04-20T21:22:50.230Z,91.74
2023-04-20T21:25:16.991Z,93.21
2023-04-20T21:27:43.629Z,91.79
2023-04-20T21:30:11.095Z,91.61
2023-04-20T21:32:37.647Z,92.97
2023-04-20T21:35:04.478Z,93.72
2023-04-20T21:37:31.141Z,92.93
2023-04-20T21:39:57.651Z,93.20
2023-04-20T21:42:24.124Z,93.62
2023-04-20T21:44:50.724Z,93.61
2023-04-20T21:47:17.267Z,93.87
2023-04-20T21:49:43.863Z,94.62
2023-04-20T21:52:10.524Z,93.63
2023-04-20T21:54:37.646Z,94.36
2023-04-20T21:57:04.121Z,93.50
2023-04-20T21:59:30.558Z,94.20
2023-04-20T22:01:57.334Z,93.86
2023-04-20T22:04:25.891Z,94.61
2023-04-20T22:06:53.525Z,94.11
2023-04-20T22:09:20.144Z,94.54
2023-04-20T22:11:47.781Z,93.88
2023-04-20T22:14:14.306Z,95.45
2023-04-20T22:16:41.110Z,95.27
2023-04-20T22:19:07.696Z,95.46
2023-04-20T22:21:34.398Z,96.37
2023-04-20T22:24:00.937Z,95.88
2023-04-20T22:26:27.588Z,95.38
2023-04-20T22:29:06.414Z,95.84
2023-04-20T22:31:33.076Z,95.41
2023-04-20T22:33:59.621Z,94.71
2023-04-20T22:36:26.615Z,95.29
2023-04-20T22:38:53.595Z,95.43
2023-04-20T22:41:20.307Z,94.71
2023-04-20T22:43:46.721Z,95.20
2023-04-20T22:46:13.297Z,95.24
2023-04-20T22:48:41.513Z,94.65
2023-04-20T22:51:07.945Z,94.84
2023-04-20T22:53:34.553Z,94.50
2023-04-20T22:56:05.850Z,93.72
2023-04-20T22:58:32.503Z,93.94
2023-04-20T23:00:59.371Z,93.91
2023-04-20T23:03:26.522Z,95.08
2023-04-20T23:05:57.502Z,94.74
2023-04-20T23:08:25.571Z,93.20
2023-04-20T23:10:53.785Z,93.97
2023-04-20T23:13:22.014Z,93.10
2023-04-20T23:15:49.701Z,93.92
2023-04-20T23:18:16.562Z,93.71
2023-04-20T23:20:43.290Z,93.92
2023-04-20T23:23:10.953Z,93.65
2023-04-20T23:25:37.813Z,93.20
2023-04-20T23:28:04.986Z,93.24
2023-04-20T23:30:31.736Z,93.32
2023-04-20T23:32:58.362Z,93.81
2023-04-20T23:35:24.970Z,95.35
2023-04-20T23:37:51.589Z,94.62
2023-04-20T23:40:18.158Z,95.29
2023-04-20T23:42:44.647Z,95.31
2023-04-20T23:45:11.899Z,95.65
2023-04-20T23:47:38.653Z,96.53
2023-04-20T23:50:05.801Z,96.08
2023-04-20T23:52:32.550Z,95.89
2023-04-20T23:54:59.134Z,96.56
2023-04-20T23:57:25.604Z,96.02
2023-04-20T23:59:52.071Z,97.39
